Time;durP1;ratioP1;P1;durP2;ratioP2;P2;SDS_P1;SDS_P2;PMS_P1;PMS_P2;Temp;Humidity;BMP_temperature;BMP_pressure;BME280_temperature;BME280_humidity;BME280_pressure;Samples;Min_cycle;Max_cycle;Signal;HPM_P1;HPM_P2
2024/04/01 00:06:50;;;;;;;;;;;10.70;99.90;;;;;;21055832;28;19947;-77
2024/04/01 00:16:51;;;;;;;;;;;10.60;99.90;;;;;;21059490;28;19916;-78
2024/04/01 00:26:51;;;;;;;;;;;10.70;99.90;;;;;;21061170;28;20286;-78
2024/04/01 00:36:52;;;;;;;;;;;10.60;99.90;;;;;;21050386;28;19916;-79
2024/04/01 00:46:53;;;;;;;;;;;10.60;99.90;;;;;;21060843;28;19913;-79
2024/04/01 00:56:54;;;;;;;;;;;10.60;99.90;;;;;;21052427;28;19916;-79
2024/04/01 01:06:55;;;;;;;;;;;10.60;99.90;;;;;;21057103;28;19920;-78
2024/04/01 01:16:56;;;;;;;;;;;10.70;99.90;;;;;;21089634;28;19915;-79
2024/04/01 01:26:56;;;;;;;;;;;10.70;99.90;;;;;;21096825;28;19923;-79
2024/04/01 01:36:58;;;;;;;;;;;10.60;99.90;;;;;;21097201;28;19920;-80
2024/04/01 01:46:58;;;;;;;;;;;10.50;99.90;;;;;;21096447;28;20389;-79
2024/04/01 01:56:59;;;;;;;;;;;10.50;99.90;;;;;;21094755;28;20010;-79
2024/04/01 02:07:00;;;;;;;;;;;10.50;99.90;;;;;;21095036;28;19912;-79
2024/04/01 02:17:01;;;;;;;;;;;10.40;99.90;;;;;;21094789;28;20002;-77
2024/04/01 02:27:01;;;;;;;;;;;10.30;99.90;;;;;;21094624;28;19912;-79
2024/04/01 02:37:02;;;;;;;;;;;10.30;99.90;;;;;;21096372;28;20294;-78
2024/04/01 02:47:03;;;;;;;;;;;10.20;99.90;;;;;;21097854;28;19962;-78
2024/04/01 02:57:04;;;;;;;;;;;10.00;99.90;;;;;;21105440;28;19916;-77
2024/04/01 03:07:04;;;;;;;;;;;9.90;99.90;;;;;;21123717;28;19912;-78
2024/04/01 03:17:05;;;;;;;;;;;9.70;99.90;;;;;;21092051;28;20402;-78
2024/04/01 03:27:06;;;;;;;;;;;9.60;99.90;;;;;;21092900;28;19920;-78
2024/04/01 03:37:07;;;;;;;;;;;9.50;99.90;;;;;;21093936;28;19924;-78
2024/04/01 03:47:08;;;;;;;;;;;9.40;99.90;;;;;;21104970;28;19924;-79
2024/04/01 03:57:08;;;;;;;;;;;9.30;99.90;;;;;;21111227;28;20367;-78
2024/04/01 04:07:09;;;;;;;;;;;9.20;99.90;;;;;;21114294;28;19912;-79
2024/04/01 04:17:10;;;;;;;;;;;9.10;99.90;;;;;;21102884;28;20370;-77
2024/04/01 04:27:10;;;;;;;;;;;9.00;99.90;;;;;;21100368;28;19919;-78
2024/04/01 04:37:11;;;;;;;;;;;9.00;99.90;;;;;;21097237;28;19916;-80
2024/04/01 04:47:11;;;;;;;;;;;8.90;99.90;;;;;;21085140;28;20294;-77
2024/04/01 04:57:12;;;;;;;;;;;8.90;99.90;;;;;;21083410;28;19915;-78
2024/04/01 05:07:13;;;;;;;;;;;8.80;99.90;;;;;;21086606;28;20006;-78
2024/04/01 05:17:15;;;;;;;;;;;8.80;99.90;;;;;;21084154;28;19916;-78
2024/04/01 05:27:16;;;;;;;;;;;8.90;99.90;;;;;;21086088;28;20280;-77
2024/04/01 05:37:16;;;;;;;;;;;8.90;99.90;;;;;;21088344;28;19916;-78
2024/04/01 05:47:17;;;;;;;;;;;8.80;99.90;;;;;;21087286;28;19923;-77
2024/04/01 05:57:18;;;;;;;;;;;8.80;99.90;;;;;;21070172;28;19927;-78
2024/04/01 06:07:19;;;;;;;;;;;8.90;99.90;;;;;;21090999;28;19912;-77
2024/04/01 06:17:19;;;;;;;;;;;8.90;99.90;;;;;;21085215;28;19916;-79
2024/04/01 06:27:20;;;;;;;;;;;8.90;99.90;;;;;;21101809;28;19912;-79
2024/04/01 06:37:21;;;;;;;;;;;9.10;99.90;;;;;;21050496;28;19916;-80
2024/04/01 06:47:21;;;;;;;;;;;9.10;99.90;;;;;;21051500;28;19934;-78
2024/04/01 06:57:22;;;;;;;;;;;9.00;99.90;;;;;;21072713;28;19916;-79
2024/04/01 07:07:23;;;;;;;;;;;9.10;99.90;;;;;;21057380;28;20441;-78
2024/04/01 07:17:23;;;;;;;;;;;9.10;99.90;;;;;;21097731;28;19970;-78
2024/04/01 07:27:24;;;;;;;;;;;9.00;99.90;;;;;;21083901;28;19938;-79
2024/04/01 07:37:25;;;;;;;;;;;9.00;99.90;;;;;;21107344;28;19923;-79
2024/04/01 07:47:25;;;;;;;;;;;9.10;99.90;;;;;;21108758;28;20363;-78
2024/04/01 07:57:32;;;;;;;;;;;9.20;99.90;;;;;;21104377;28;19916;-79
2024/04/01 08:07:33;;;;;;;;;;;9.20;99.90;;;;;;21091474;28;19912;-79
2024/04/01 08:17:33;;;;;;;;;;;9.10;99.90;;;;;;21070297;28;20367;-77
2024/04/01 08:27:34;;;;;;;;;;;9.20;99.90;;;;;;21075132;28;19919;-77
2024/04/01 08:37:34;;;;;;;;;;;9.30;99.90;;;;;;21065601;28;19923;-77
2024/04/01 08:47:36;;;;;;;;;;;9.30;99.90;;;;;;21065998;28;19913;-78
2024/04/01 08:57:37;;;;;;;;;;;9.20;99.90;;;;;;21041330;28;19968;-77
2024/04/01 09:07:38;;;;;;;;;;;9.00;99.90;;;;;;21027562;28;19917;-77
2024/04/01 09:17:38;;;;;;;;;;;9.10;99.90;;;;;;21040173;28;19925;-77
2024/04/01 09:27:39;;;;;;;;;;;9.40;99.90;;;;;;21050793;28;19920;-78
2024/04/01 09:37:40;;;;;;;;;;;9.40;99.90;;;;;;21048756;28;19924;-78
2024/04/01 09:47:41;;;;;;;;;;;9.10;99.90;;;;;;21044116;28;20270;-78
2024/04/01 09:58:00;;;;;;;;;;;9.00;99.90;;;;;;21083638;28;19916;-77
2024/04/01 10:08:10;;;;;;;;;;;8.70;99.90;;;;;;21075457;28;20018;-77
2024/04/01 10:18:28;;;;;;;;;;;8.60;99.90;;;;;;21017954;28;19958;-77
2024/04/01 10:28:48;;;;;;;;;;;8.40;99.90;;;;;;21069313;28;19984;-77
2024/04/01 10:39:09;;;;;;;;;;;8.20;99.90;;;;;;21036770;28;20470;-75
2024/04/01 10:49:13;;;;;;;;;;;7.90;99.90;;;;;;21017604;28;19965;-77
2024/04/01 10:59:32;;;;;;;;;;;8.10;99.90;;;;;;21011178;28;20016;-78
2024/04/01 11:09:58;;;;;;;;;;;8.50;99.90;;;;;;21019071;28;19947;-77
2024/04/01 11:20:10;;;;;;;;;;;9.20;99.90;;;;;;21025566;28;19939;-78
2024/04/01 11:30:26;;;;;;;;;;;9.90;99.90;;;;;;21028266;28;19919;-79
2024/04/01 11:40:29;;;;;;;;;;;10.10;99.90;;;;;;21039055;28;19923;-79
2024/04/01 11:50:31;;;;;;;;;;;10.30;99.90;;;;;;21061416;28;20358;-77
2024/04/01 12:00:31;;;;;;;;;;;10.10;99.90;;;;;;21059712;28;20029;-78
2024/04/01 12:10:32;;;;;;;;;;;10.00;99.90;;;;;;21009981;28;19924;-77
2024/04/01 12:20:33;;;;;;;;;;;10.40;99.90;;;;;;21054631;28;20374;-78
2024/04/01 12:30:37;;;;;;;;;;;10.70;99.90;;;;;;21102017;28;19920;-78
2024/04/01 12:40:41;;;;;;;;;;;11.10;99.90;;;;;;21057766;28;19916;-79
2024/04/01 12:50:43;;;;;;;;;;;11.80;99.90;;;;;;21061753;28;19912;-78
2024/04/01 13:00:48;;;;;;;;;;;12.80;99.90;;;;;;21108436;28;19923;-77
2024/04/01 13:10:55;;;;;;;;;;;12.20;99.90;;;;;;21088186;28;19919;-76
2024/04/01 13:21:03;;;;;;;;;;;12.10;99.90;;;;;;21078427;28;19916;-76
2024/04/01 13:31:10;;;;;;;;;;;12.10;99.90;;;;;;21085555;28;19951;-77
2024/04/01 13:41:10;;;;;;;;;;;11.80;99.90;;;;;;21076360;28;20430;-77
2024/04/01 13:51:20;;;;;;;;;;;11.00;99.90;;;;;;21084537;28;19935;-77
2024/04/01 14:01:36;;;;;;;;;;;10.70;99.90;;;;;;21080916;28;19916;-77
2024/04/01 14:12:06;;;;;;;;;;;11.00;99.90;;;;;;21075578;28;19920;-77
2024/04/01 14:22:08;;;;;;;;;;;11.20;99.90;;;;;;21068608;28;19916;-78
2024/04/01 14:32:10;;;;;;;;;;;11.50;99.90;;;;;;21069944;28;19920;-77
2024/04/01 14:42:11;;;;;;;;;;;11.40;99.90;;;;;;21010236;28;20576;-78
2024/04/01 14:52:11;;;;;;;;;;;11.40;99.90;;;;;;21004271;28;19942;-75
2024/04/01 15:02:12;;;;;;;;;;;11.40;99.90;;;;;;21004626;28;19916;-76
2024/04/01 15:12:15;;;;;;;;;;;11.40;99.90;;;;;;21005772;28;19952;-77
2024/04/01 15:22:16;;;;;;;;;;;11.50;99.90;;;;;;21013070;28;19916;-78
2024/04/01 15:32:17;;;;;;;;;;;12.30;99.90;;;;;;21014357;28;19912;-75
2024/04/01 15:42:18;;;;;;;;;;;13.30;99.90;;;;;;21033917;28;19916;-77
2024/04/01 15:52:18;;;;;;;;;;;13.30;99.90;;;;;;21024055;28;19916;-77
2024/04/01 16:02:20;;;;;;;;;;;12.50;99.90;;;;;;21024613;28;19920;-74
2024/04/01 16:12:24;;;;;;;;;;;12.10;99.90;;;;;;21077521;28;19912;-77
2024/04/01 16:22:27;;;;;;;;;;;11.90;99.90;;;;;;21068500;28;19916;-79
2024/04/01 16:32:28;;;;;;;;;;;12.10;99.90;;;;;;21097155;28;20015;-78
2024/04/01 16:42:31;;;;;;;;;;;12.10;99.90;;;;;;21076272;28;19958;-77
2024/04/01 16:52:33;;;;;;;;;;;12.10;99.90;;;;;;21093032;28;19946;-78
2024/04/01 17:02:37;;;;;;;;;;;12.00;99.90;;;;;;21081638;28;19916;-78
2024/04/01 17:12:38;;;;;;;;;;;11.90;99.90;;;;;;21088349;28;19953;-77
2024/04/01 17:22:40;;;;;;;;;;;11.60;99.90;;;;;;21094492;28;20493;-78
2024/04/01 17:32:41;;;;;;;;;;;11.40;99.90;;;;;;21059264;28;19913;-78
2024/04/01 17:42:42;;;;;;;;;;;11.20;99.90;;;;;;21088792;28;19924;-78
2024/04/01 17:52:43;;;;;;;;;;;10.90;99.90;;;;;;21099669;28;19918;-76
2024/04/01 18:02:44;;;;;;;;;;;10.70;99.90;;;;;;21093430;28;19916;-79
2024/04/01 18:12:45;;;;;;;;;;;10.60;99.90;;;;;;21095478;28;19969;-78
2024/04/01 18:22:46;;;;;;;;;;;10.30;99.90;;;;;;21091502;28;19979;-79
2024/04/01 18:32:46;;;;;;;;;;;8.80;99.90;;;;;;21082359;28;19935;-79
2024/04/01 18:42:47;;;;;;;;;;;8.60;99.90;;;;;;21053737;28;19916;-78
2024/04/01 18:52:49;;;;;;;;;;;8.30;99.90;;;;;;21093348;28;19995;-78
2024/04/01 19:02:50;;;;;;;;;;;8.40;99.90;;;;;;21084437;28;19969;-78
2024/04/01 19:12:51;;;;;;;;;;;8.00;99.90;;;;;;21091043;28;20394;-78
2024/04/01 19:22:51;;;;;;;;;;;8.00;99.90;;;;;;21082385;28;20012;-77
2024/04/01 19:32:52;;;;;;;;;;;8.10;99.90;;;;;;21080342;28;19912;-77
2024/04/01 19:42:54;;;;;;;;;;;8.20;99.90;;;;;;21074823;28;19916;-77
2024/04/01 19:52:56;;;;;;;;;;;8.00;99.90;;;;;;21080953;28;19919;-77
2024/04/01 20:02:57;;;;;;;;;;;7.80;99.90;;;;;;21087494;28;20452;-77
2024/04/01 20:12:58;;;;;;;;;;;7.50;99.90;;;;;;21082706;28;19920;-80
2024/04/01 20:23:01;;;;;;;;;;;7.20;99.90;;;;;;21097314;28;20297;-77
2024/04/01 20:33:06;;;;;;;;;;;6.90;99.90;;;;;;21085560;28;19912;-77
2024/04/01 20:43:06;;;;;;;;;;;7.00;99.90;;;;;;21085564;28;19958;-77
2024/04/01 20:53:14;;;;;;;;;;;6.50;99.90;;;;;;21087422;28;20294;-77
2024/04/01 21:03:34;;;;;;;;;;;6.40;99.90;;;;;;21090082;28;20286;-77
2024/04/01 21:13:35;;;;;;;;;;;6.50;99.90;;;;;;21068463;28;20308;-77
2024/04/01 21:23:36;;;;;;;;;;;6.70;99.90;;;;;;21044152;28;19920;-76
2024/04/01 21:33:37;;;;;;;;;;;6.60;99.90;;;;;;21054535;28;19916;-78
2024/04/01 21:43:38;;;;;;;;;;;6.00;99.90;;;;;;21043991;28;19970;-78
2024/04/01 21:53:38;;;;;;;;;;;5.80;99.90;;;;;;21045195;28;19999;-78
2024/04/01 22:03:39;;;;;;;;;;;6.00;99.90;;;;;;21044200;28;19920;-78
2024/04/01 22:13:41;;;;;;;;;;;5.80;99.90;;;;;;21043888;28;20398;-77
2024/04/01 22:23:41;;;;;;;;;;;6.00;99.90;;;;;;21042938;28;20015;-78
2024/04/01 22:33:42;;;;;;;;;;;6.00;99.90;;;;;;21074578;28;19912;-78
2024/04/01 22:43:43;;;;;;;;;;;5.70;99.90;;;;;;21088578;28;20506;-78
2024/04/01 22:53:43;;;;;;;;;;;5.70;99.90;;;;;;21088929;28;19920;-78
2024/04/01 23:03:44;;;;;;;;;;;5.60;99.90;;;;;;21104412;28;19916;-78
2024/04/01 23:13:45;;;;;;;;;;;5.50;99.90;;;;;;21087452;28;19976;-78
2024/04/01 23:23:45;;;;;;;;;;;5.30;99.90;;;;;;21083696;28;19946;-77
2024/04/01 23:33:46;;;;;;;;;;;5.20;99.90;;;;;;21085303;28;19912;-77
2024/04/01 23:43:50;;;;;;;;;;;5.60;99.90;;;;;;21098339;28;20002;-77
2024/04/01 23:53:51;;;;;;;;;;;5.50;99.90;;;;;;21097848;28;19919;-78
